Time;durP1;ratioP1;P1;durP2;ratioP2;P2;SDS_P1;SDS_P2;PMS_P1;PMS_P2;Temp;Humidity;BMP_temperature;BMP_pressure;BME280_temperature;BME280_humidity;BME280_pressure;Samples;Min_cycle;Max_cycle;Signal;HPM_P1;HPM_P2
2022/04/30 00:02:07;;;;;;;4.43;3.10;;;;;;;2.49;74.39;100035.81;5007564;28;20131;-69
2022/04/30 00:04:40;;;;;;;6.82;2.88;;;;;;;2.43;74.81;100038.66;5008239;28;20041;-70
2022/04/30 00:07:05;;;;;;;6.57;3.47;;;;;;;2.42;74.36;100043.97;5001808;28;20103;-70
2022/04/30 00:09:30;;;;;;;4.82;2.72;;;;;;;2.36;74.37;100042.41;4989857;28;20041;-69
2022/04/30 00:11:55;;;;;;;3.97;2.90;;;;;;;2.38;74.54;100037.06;4988639;28;20128;-69
2022/04/30 00:14:21;;;;;;;3.45;2.80;;;;;;;2.39;74.08;100052.81;5002673;28;20518;-68
2022/04/30 00:16:47;;;;;;;4.55;2.97;;;;;;;2.38;74.22;100052.84;5006045;28;20045;-68
2022/04/30 00:19:12;;;;;;;4.28;3.00;;;;;;;2.38;73.82;100048.44;5005973;28;20082;-68
2022/04/30 00:21:36;;;;;;;5.03;3.20;;;;;;;2.30;74.73;100055.72;5007556;28;20124;-67
2022/04/30 00:24:02;;;;;;;3.50;3.00;;;;;;;2.35;74.40;100051.19;5007801;28;20052;-69
2022/04/30 00:26:28;;;;;;;3.03;2.50;;;;;;;2.37;74.11;100054.63;5006580;28;20120;-68
2022/04/30 00:28:53;;;;;;;5.50;3.88;;;;;;;2.34;74.45;100054.75;5005719;28;20060;-68
2022/04/30 00:31:18;;;;;;;2.97;2.55;;;;;;;2.30;74.63;100050.47;5007690;28;20029;-67
2022/04/30 00:33:47;;;;;;;2.80;2.35;;;;;;;2.35;74.15;100053.84;5007464;28;20044;-66
2022/04/30 00:36:12;;;;;;;3.70;2.60;;;;;;;2.35;73.27;100052.97;5004561;28;20507;-68
2022/04/30 00:38:36;;;;;;;3.28;2.95;;;;;;;2.31;73.42;100051.34;5005881;28;20496;-68
2022/04/30 00:41:01;;;;;;;5.30;3.17;;;;;;;2.22;74.05;100046.38;5004280;28;20034;-70
2022/04/30 00:43:26;;;;;;;3.10;2.17;;;;;;;2.19;74.19;100053.44;5006362;28;20045;-69
2022/04/30 00:45:51;;;;;;;5.05;2.50;;;;;;;2.15;74.13;100064.09;4964441;28;20065;-68
2022/04/30 00:48:16;;;;;;;3.15;2.15;;;;;;;2.12;74.29;100062.44;5000510;28;20057;-69
2022/04/30 00:50:41;;;;;;;2.42;2.20;;;;;;;2.12;74.41;100056.31;5010504;28;20136;-66
2022/04/30 00:53:07;;;;;;;3.75;2.63;;;;;;;2.06;74.94;100051.22;5028547;28;20045;-67
2022/04/30 00:55:35;;;;;;;3.20;2.70;;;;;;;2.06;74.50;100046.81;5007246;28;20040;-67
2022/04/30 00:58:04;;;;;;;3.03;2.70;;;;;;;2.06;74.28;100054.72;5029771;28;20135;-69
2022/04/30 01:00:29;;;;;;;2.95;2.35;;;;;;;2.03;74.34;100051.34;5000262;28;20144;-68
2022/04/30 01:03:13;;;;;;;3.53;2.25;;;;;;;2.06;74.17;100051.22;4992863;28;20036;-66
2022/04/30 01:05:44;;;;;;;2.85;2.40;;;;;;;2.00;74.39;100056.69;5006155;28;20183;-67
2022/04/30 01:08:09;;;;;;;3.90;2.38;;;;;;;1.98;74.13;100058.50;5009257;28;20044;-68
2022/04/30 01:10:34;;;;;;;3.78;2.80;;;;;;;1.89;74.53;100058.78;5028190;28;20098;-68
2022/04/30 01:12:58;;;;;;;3.72;2.75;;;;;;;1.91;74.53;100059.59;5028780;28;20044;-70
2022/04/30 01:15:25;;;;;;;4.53;2.80;;;;;;;1.91;74.15;100060.47;5041751;28;20096;-70
2022/04/30 01:17:50;;;;;;;2.80;2.60;;;;;;;1.80;74.06;100063.41;5041296;28;20044;-71
2022/04/30 01:20:16;;;;;;;5.45;3.15;;;;;;;1.83;74.29;100063.28;5043012;28;20041;-72
2022/04/30 01:23:02;;;;;;;4.60;3.00;;;;;;;1.80;74.61;100057.28;5040340;28;20044;-70
2022/04/30 01:25:30;;;;;;;3.30;2.80;;;;;;;1.76;74.44;100059.13;5014011;28;20118;-63
2022/04/30 01:27:56;;;;;;;5.32;2.80;;;;;;;1.77;74.44;100055.59;5036961;28;20416;-63
2022/04/30 01:30:22;;;;;;;2.70;1.98;;;;;;;1.78;74.35;100057.31;5033299;28;20032;-62
2022/04/30 01:38:15;;;;;;;5.25;3.17;;;;;;;1.80;74.23;100059.91;5025505;28;20203;-63
2022/04/30 01:40:40;;;;;;;3.78;2.90;;;;;;;1.82;73.88;100060.69;5020387;28;20047;-63
2022/04/30 01:43:06;;;;;;;3.95;2.80;;;;;;;1.80;73.95;100058.16;5006650;28;20053;-64
2022/04/30 01:45:31;;;;;;;4.07;3.03;;;;;;;1.79;73.88;100066.94;5006479;28;20051;-63
2022/04/30 01:47:59;;;;;;;4.35;2.85;;;;;;;1.74;73.70;100073.22;5024977;28;20044;-66
2022/04/30 01:50:24;;;;;;;3.83;2.63;;;;;;;1.71;74.22;100070.66;4998134;28;20511;-66
2022/04/30 01:52:49;;;;;;;4.47;2.88;;;;;;;1.65;74.42;100066.47;5023067;28;20858;-66
2022/04/30 01:55:14;;;;;;;3.00;2.45;;;;;;;1.63;73.91;100070.03;5016874;28;20041;-66
2022/04/30 01:57:43;;;;;;;4.60;2.92;;;;;;;1.60;74.25;100068.34;5000664;28;20056;-66
2022/04/30 02:00:09;;;;;;;5.75;3.55;;;;;;;1.55;74.60;100069.41;5018567;28;20036;-69
2022/04/30 02:02:45;;;;;;;3.53;2.63;;;;;;;1.47;74.97;100074.84;4998647;28;20136;-67
2022/04/30 02:05:13;;;;;;;2.95;2.38;;;;;;;1.46;74.97;100075.78;5015954;28;20037;-68
2022/04/30 02:07:49;;;;;;;4.53;2.97;;;;;;;1.53;74.60;100072.06;5016105;28;20037;-66
2022/04/30 02:10:15;;;;;;;3.67;2.75;;;;;;;1.56;74.49;100074.63;5017371;28;20036;-66
2022/04/30 02:12:40;;;;;;;4.75;2.67;;;;;;;1.58;74.47;100072.78;5017094;28;20045;-68
2022/04/30 02:15:08;;;;;;;3.50;2.22;;;;;;;1.66;73.80;100077.84;5016251;28;20064;-66
2022/04/30 02:17:38;;;;;;;5.95;3.03;;;;;;;1.61;74.37;100072.69;4999079;28;20071;-64
2022/04/30 02:20:18;;;;;;;3.45;2.67;;;;;;;1.70;74.47;100071.56;5004345;28;20052;-65
2022/04/30 02:22:44;;;;;;;3.85;2.75;;;;;;;1.85;74.00;100078.16;5015167;28;20124;-64
2022/04/30 02:25:11;;;;;;;4.80;2.33;;;;;;;1.96;73.36;100074.31;4980845;28;20044;-67
2022/04/30 02:27:42;;;;;;;5.80;3.70;;;;;;;2.03;72.95;100069.75;5015988;28;20120;-67
2022/04/30 02:30:10;;;;;;;7.82;3.03;;;;;;;2.12;73.01;100074.72;5016036;28;20076;-66
2022/04/30 02:32:40;;;;;;;3.17;2.60;;;;;;;2.26;72.64;100079.56;5015502;28;20419;-64
2022/04/30 02:35:05;;;;;;;3.22;2.67;;;;;;;2.33;72.03;100084.59;5013361;28;20049;-67
2022/04/30 02:37:30;;;;;;;3.13;2.70;;;;;;;2.38;71.66;100090.53;5014693;28;20514;-64
2022/04/30 02:39:55;;;;;;;4.18;3.00;;;;;;;2.40;71.20;100083.47;5013749;28;20511;-63
2022/04/30 02:42:20;;;;;;;3.50;2.88;;;;;;;2.38;71.39;100093.19;5014049;28;20056;-66
2022/04/30 02:44:45;;;;;;;4.07;2.85;;;;;;;2.42;71.23;100092.19;5015031;28;20044;-69
2022/04/30 02:47:10;;;;;;;3.40;2.67;;;;;;;2.46;70.86;100099.09;5015702;28;20796;-73
2022/04/30 02:49:35;;;;;;;4.93;3.05;;;;;;;2.49;70.70;100098.97;5016417;28;20056;-75
2022/04/30 02:51:59;;;;;;;4.78;2.78;;;;;;;2.38;71.12;100101.06;4998286;28;20053;-76
2022/04/30 02:54:24;;;;;;;4.43;3.03;;;;;;;2.37;71.08;100104.59;5016965;28;20045;-76
2022/04/30 02:56:49;;;;;;;8.70;3.80;;;;;;;2.45;71.02;100104.41;5017355;28;20075;-76
2022/04/30 03:02:00;;;;;;;5.10;3.40;;;;;;;2.53;70.61;100100.59;4999307;28;20041;-75
2022/04/30 03:04:52;;;;;;;5.05;3.20;;;;;;;2.69;70.33;100100.13;5013754;28;20476;-76
2022/04/30 03:07:22;;;;;;;3.33;2.88;;;;;;;2.58;69.98;100107.50;5018469;28;20045;-76
2022/04/30 03:09:47;;;;;;;6.30;2.97;;;;;;;2.61;69.72;100110.03;5018747;28;20045;-74
2022/04/30 03:12:12;;;;;;;7.97;3.17;;;;;;;2.60;70.10;100109.16;4998940;28;20037;-75
2022/04/30 03:14:37;;;;;;;3.08;2.58;;;;;;;2.67;70.07;100110.72;4997130;28;20053;-69
2022/04/30 03:22:30;;;;;;;3.35;2.78;;;;;;;2.83;68.85;100109.28;5015515;28;20866;-75
2022/04/30 03:24:55;;;;;;;3.33;2.20;;;;;;;2.86;68.74;100126.75;4998120;28;20403;-70
2022/04/30 03:27:20;;;;;;;2.72;2.40;;;;;;;2.78;68.69;100118.25;4981452;28;20043;-70
2022/04/30 03:29:46;;;;;;;6.65;3.10;;;;;;;2.82;68.75;100112.00;5006085;28;20098;-69
2022/04/30 03:32:11;;;;;;;5.47;2.85;;;;;;;2.89;68.54;100119.63;4991307;28;20040;-76
2022/04/30 03:34:36;;;;;;;4.35;2.65;;;;;;;3.03;68.52;100120.97;5025076;28;20071;-74
2022/04/30 03:37:00;;;;;;;4.10;3.40;;;;;;;3.08;68.46;100119.88;5026512;28;20065;-70
2022/04/30 03:39:25;;;;;;;5.05;2.85;;;;;;;3.18;68.04;100125.69;5000589;28;20190;-71
2022/04/30 03:41:50;;;;;;;4.20;3.13;;;;;;;3.25;67.94;100125.47;5015182;28;20130;-71
2022/04/30 03:44:16;;;;;;;3.67;2.55;;;;;;;3.31;67.57;100128.78;5016113;28;20053;-70
2022/04/30 03:46:41;;;;;;;5.40;3.17;;;;;;;3.42;66.94;100129.28;4998109;28;20496;-70
2022/04/30 03:49:06;;;;;;;8.13;3.08;;;;;;;3.45;66.54;100118.63;5016962;28;20424;-69
2022/04/30 03:51:31;;;;;;;3.95;3.05;;;;;;;3.41;66.67;100138.94;5005176;28;20081;-70
2022/04/30 03:53:55;;;;;;;3.58;2.70;;;;;;;3.50;66.19;100137.78;5006025;28;20127;-70
2022/04/30 03:56:21;;;;;;;3.17;2.63;;;;;;;3.52;66.26;100133.31;5018928;28;20175;-69
2022/04/30 03:58:47;;;;;;;2.55;2.20;;;;;;;3.60;65.86;100142.69;4996293;28;20401;-71
2022/04/30 04:01:13;;;;;;;5.75;2.88;;;;;;;3.60;65.75;100152.38;4992994;28;20452;-70
2022/04/30 04:03:38;;;;;;;2.40;2.20;;;;;;;3.63;65.68;100141.69;4988757;28;20044;-70
2022/04/30 04:06:03;;;;;;;6.57;3.30;;;;;;;3.65;65.50;100138.09;5003168;28;20237;-69
2022/04/30 04:08:28;;;;;;;3.92;2.90;;;;;;;3.73;65.63;100142.22;4972687;28;20037;-69
2022/04/30 04:10:53;;;;;;;3.80;2.85;;;;;;;3.75;65.48;100148.31;5002115;28;20067;-70
2022/04/30 04:18:44;;;;;;;4.75;3.05;;;;;;;3.71;65.32;100147.59;4964607;28;20041;-69
2022/04/30 04:21:09;;;;;;;3.72;2.45;;;;;;;3.79;64.67;100157.84;4999650;28;20052;-69
2022/04/30 04:25:59;;;;;;;4.32;3.00;;;;;;;3.84;64.42;100156.75;4999046;28;20040;-71
2022/04/30 04:26:19;;;;;;;4.22;2.63;;;;;;;3.86;64.26;100152.28;4979983;28;20045;-68
2022/04/30 04:28:44;;;;;;;3.20;2.17;;;;;;;3.92;64.29;100156.50;4997585;28;20051;-68
2022/04/30 04:31:09;;;;;;;7.47;2.95;;;;;;;3.95;63.97;100169.59;4980222;28;20054;-68
2022/04/30 04:33:34;;;;;;;4.70;2.85;;;;;;;4.00;63.85;100165.84;4980858;28;20049;-68
2022/04/30 04:35:58;;;;;;;4.00;2.58;;;;;;;4.08;63.81;100162.06;4980086;28;20087;-67
2022/04/30 04:38:23;;;;;;;5.78;2.47;;;;;;;4.07;63.25;100168.25;4997391;28;20045;-67
2022/04/30 04:40:48;;;;;;;4.57;3.10;;;;;;;4.14;63.08;100168.00;4980469;28;20056;-68
2022/04/30 04:43:12;;;;;;;6.55;2.88;;;;;;;4.12;62.60;100174.22;4997755;28;20046;-67
2022/04/30 04:45:37;;;;;;;6.00;3.13;;;;;;;4.17;62.19;100167.03;4998078;28;20045;-71
2022/04/30 04:48:02;;;;;;;4.85;3.13;;;;;;;4.18;62.02;100168.72;4964576;28;20068;-71
2022/04/30 04:50:27;;;;;;;5.70;4.07;;;;;;;4.14;61.79;100172.41;4998741;28;20420;-70
2022/04/30 04:52:54;;;;;;;4.00;3.00;;;;;;;4.07;62.22;100173.53;5033123;28;20399;-70
2022/04/30 04:55:19;;;;;;;5.15;3.47;;;;;;;4.09;61.92;100174.34;5037318;28;20051;-71
2022/04/30 04:57:43;;;;;;;5.38;3.63;;;;;;;4.12;61.88;100179.50;5002454;28;20033;-71
2022/04/30 05:00:10;;;;;;;6.80;4.05;;;;;;;4.19;62.07;100183.63;5002608;28;20051;-69
2022/04/30 05:02:36;;;;;;;6.63;3.22;;;;;;;4.29;61.83;100188.50;5037866;28;20043;-69
2022/04/30 05:05:00;;;;;;;4.80;4.07;;;;;;;4.38;61.20;100188.19;5036722;28;20474;-70
2022/04/30 05:07:25;;;;;;;4.20;3.42;;;;;;;4.50;61.06;100178.09;5020003;28;20475;-68
2022/04/30 05:09:50;;;;;;;3.83;2.97;;;;;;;4.65;60.24;100188.91;5037471;28;20049;-67
2022/04/30 05:12:15;;;;;;;5.35;3.08;;;;;;;4.75;59.65;100187.63;5036711;28;20052;-70
2022/04/30 05:14:40;;;;;;;6.85;3.28;;;;;;;4.77;59.04;100189.34;5036267;28;20048;-68
2022/04/30 05:17:06;;;;;;;4.85;2.92;;;;;;;4.93;59.75;100179.91;5018540;28;20077;-68
2022/04/30 05:19:32;;;;;;;3.50;2.75;;;;;;;5.17;58.64;100183.34;5036804;28;20078;-67
2022/04/30 05:21:57;;;;;;;4.63;3.28;;;;;;;5.36;57.76;100185.16;5037598;28;20182;-69
2022/04/30 05:24:21;;;;;;;5.60;2.25;;;;;;;5.62;57.43;100192.00;5037079;28;20127;-68
2022/04/30 05:26:49;;;;;;;4.40;3.35;;;;;;;5.80;56.98;100190.34;5037631;28;20503;-73
2022/04/30 05:29:14;;;;;;;5.13;2.80;;;;;;;6.01;55.55;100188.59;5019473;28;20048;-70
2022/04/30 05:31:39;;;;;;;3.55;2.70;;;;;;;6.23;55.92;100185.84;5036873;28;20047;-69
2022/04/30 05:34:04;;;;;;;3.55;2.80;;;;;;;6.84;55.02;100175.94;5001905;28;20040;-70
2022/04/30 05:36:28;;;;;;;4.43;2.72;;;;;;;7.36;52.51;100179.53;5001844;28;20043;-69
2022/04/30 05:38:53;;;;;;;3.65;2.58;;;;;;;7.75;51.10;100182.00;5018756;28;20113;-71
2022/04/30 05:41:18;;;;;;;2.85;2.50;;;;;;;7.70;50.59;100183.13;5002304;28;20101;-70
2022/04/30 05:43:43;;;;;;;3.95;3.03;;;;;;;8.07;50.25;100179.44;5002056;28;20416;-70
2022/04/30 05:46:08;;;;;;;4.25;2.58;;;;;;;8.37;49.11;100183.16;5036435;28;20044;-70
2022/04/30 05:48:33;;;;;;;4.00;3.00;;;;;;;8.86;48.25;100181.34;5036589;28;20126;-71
2022/04/30 05:50:57;;;;;;;3.55;2.90;;;;;;;9.57;46.64;100181.69;5035469;28;20384;-70
2022/04/30 05:53:22;;;;;;;4.75;2.95;;;;;;;10.27;43.97;100180.09;5020588;28;20040;-70
2022/04/30 05:55:47;;;;;;;5.68;3.13;;;;;;;10.94;43.56;100177.69;5019888;28;20119;-68
2022/04/30 05:58:11;;;;;;;2.55;2.33;;;;;;;11.75;39.73;100171.38;5038858;28;20388;-67
2022/04/30 06:00:36;;;;;;;5.55;3.13;;;;;;;12.71;38.42;100169.97;5038646;28;20052;-70
2022/04/30 06:03:01;;;;;;;2.58;2.38;;;;;;;13.82;37.02;100175.09;5040215;28;20419;-70
2022/04/30 06:05:26;;;;;;;4.18;3.05;;;;;;;13.95;35.00;100172.34;5040799;28;20040;-69
2022/04/30 06:07:51;;;;;;;2.72;2.53;;;;;;;14.53;34.73;100174.03;5039582;28;20100;-69
2022/04/30 06:10:16;;;;;;;6.78;2.47;;;;;;;15.46;34.10;100179.88;5040377;28;20047;-68
2022/04/30 06:12:41;;;;;;;4.03;2.60;;;;;;;16.50;33.17;100179.91;5041446;28;20119;-68
2022/04/30 06:15:07;;;;;;;3.13;2.30;;;;;;;16.93;30.94;100175.13;5043266;28;20108;-67
2022/04/30 06:17:32;;;;;;;3.67;3.00;;;;;;;17.18;29.60;100167.56;5044144;28;20045;-68
2022/04/30 06:19:56;;;;;;;9.00;3.33;;;;;;;17.23;29.18;100165.31;5045352;28;20048;-68
2022/04/30 06:22:21;;;;;;;2.80;2.45;;;;;;;17.49;29.15;100169.19;5044849;28;20040;-68
2022/04/30 06:24:46;;;;;;;3.95;2.80;;;;;;;17.87;28.59;100176.44;5044249;28;20044;-71
2022/04/30 06:27:11;;;;;;;4.80;3.50;;;;;;;18.93;28.45;100173.47;5024741;28;20048;-70
2022/04/30 06:29:36;;;;;;;6.13;3.20;;;;;;;18.92;27.37;100179.84;5023475;28;20055;-68
2022/04/30 06:32:01;;;;;;;3.55;2.40;;;;;;;18.17;26.98;100171.84;5047855;28;20103;-68
2022/04/30 06:34:26;;;;;;;5.57;2.53;;;;;;;18.17;26.50;100172.72;5031070;28;20044;-70
2022/04/30 06:36:51;;;;;;;4.35;2.78;;;;;;;18.94;25.25;100166.19;5029023;28;20122;-68
2022/04/30 06:39:15;;;;;;;4.05;2.72;;;;;;;19.73;23.26;100159.13;5036050;28;20726;-70
2022/04/30 06:41:40;;;;;;;2.47;2.28;;;;;;;19.95;23.01;100165.91;5018310;28;20040;-69
2022/04/30 06:44:05;;;;;;;2.72;2.35;;;;;;;19.04;24.43;100170.56;5018025;28;20465;-68
2022/04/30 06:46:30;;;;;;;3.22;2.58;;;;;;;18.50;25.29;100171.34;5035496;28;20068;-71
2022/04/30 06:48:54;;;;;;;3.15;2.85;;;;;;;18.51;25.08;100173.88;5035480;28;20040;-70
2022/04/30 06:51:19;;;;;;;5.07;2.33;;;;;;;19.75;23.53;100175.22;5000610;28;20060;-69
2022/04/30 06:59:11;;;;;;;2.42;2.00;;;;;;;18.26;24.27;100177.22;5035781;28;20507;-72
2022/04/30 07:01:43;;;;;;;8.48;2.00;;;;;;;17.09;24.72;100176.47;5039115;28;20087;-73
2022/04/30 07:04:09;;;;;;;3.65;2.25;;;;;;;15.58;26.55;100185.06;5035537;28;20037;-70
2022/04/30 07:06:35;;;;;;;2.17;1.98;;;;;;;14.36;27.68;100188.72;5016991;28;20355;-70
2022/04/30 07:09:02;;;;;;;3.47;2.05;;;;;;;13.20;29.74;100182.50;5033586;28;20074;-70
2022/04/30 07:11:26;;;;;;;3.55;1.50;;;;;;;14.02;28.42;100184.28;5034909;28;20106;-70
2022/04/30 07:13:51;;;;;;;2.55;1.67;;;;;;;14.79;27.18;100172.78;5037467;28;20469;-71
2022/04/30 07:16:16;;;;;;;2.15;1.67;;;;;;;14.60;26.53;100185.13;5035032;28;20045;-70
2022/04/30 07:18:41;;;;;;;7.13;2.22;;;;;;;13.65;26.73;100180.91;5035079;28;20051;-73
2022/04/30 07:21:06;;;;;;;6.47;2.40;;;;;;;12.62;27.54;100176.84;5034868;28;20044;-69
2022/04/30 07:23:31;;;;;;;7.18;4.00;;;;;;;12.68;28.16;100178.22;5020339;28;20048;-68
2022/04/30 07:25:56;;;;;;;3.97;2.20;;;;;;;14.37;27.18;100178.84;5038991;28;20130;-68
2022/04/30 07:28:23;;;;;;;2.90;2.22;;;;;;;15.99;24.95;100167.28;4988133;28;20090;-68
2022/04/30 07:30:47;;;;;;;5.28;3.15;;;;;;;17.14;23.57;100172.38;5038862;28;20418;-68
2022/04/30 07:33:13;;;;;;;3.28;2.38;;;;;;;17.08;22.24;100169.38;5038457;28;20118;-71
2022/04/30 07:35:37;;;;;;;6.90;2.50;;;;;;;16.27;22.60;100168.44;5038435;28;20048;-69
2022/04/30 07:38:02;;;;;;;2.97;1.98;;;;;;;15.47;23.69;100182.41;5038447;28;20093;-70
2022/04/30 07:40:27;;;;;;;2.40;2.10;;;;;;;14.16;24.45;100182.25;5038363;28;20300;-70
2022/04/30 07:42:51;;;;;;;3.10;2.80;;;;;;;13.08;26.57;100181.56;5038442;28;20101;-70
2022/04/30 07:45:16;;;;;;;2.45;2.20;;;;;;;12.46;27.07;100188.72;5020246;28;20418;-70
2022/04/30 07:47:41;;;;;;;2.05;1.85;;;;;;;12.69;27.25;100169.22;5020304;28;20048;-70
2022/04/30 07:50:06;;;;;;;2.33;1.65;;;;;;;12.96;26.79;100172.59;5038120;28;20055;-69
2022/04/30 07:52:32;;;;;;;5.05;2.58;;;;;;;12.83;26.02;100169.09;5038618;28;20131;-70
2022/04/30 07:54:57;;;;;;;3.08;1.80;;;;;;;14.05;25.19;100168.81;5003749;28;20120;-70
2022/04/30 07:57:22;;;;;;;1.67;1.58;;;;;;;16.28;22.31;100157.56;5027799;28;20040;-70
2022/04/30 07:59:46;;;;;;;2.75;1.83;;;;;;;16.85;21.35;100158.81;5028303;28;20430;-74
2022/04/30 08:02:11;;;;;;;2.22;1.98;;;;;;;16.40;22.15;100152.09;5021552;28;20136;-70
2022/04/30 08:04:36;;;;;;;3.47;2.22;;;;;;;15.97;22.18;100155.81;5039401;28;20056;-72
2022/04/30 08:07:01;;;;;;;3.03;1.83;;;;;;;14.36;23.53;100156.53;5038541;28;20109;-70
2022/04/30 08:09:25;;;;;;;2.50;1.80;;;;;;;13.66;24.00;100162.00;5038426;28;20048;-71
2022/04/30 08:11:50;;;;;;;2.05;1.80;;;;;;;12.90;25.40;100158.78;5038434;28;20044;-71
2022/04/30 08:14:15;;;;;;;2.67;2.47;;;;;;;13.25;25.56;100165.13;5037191;28;20572;-73
2022/04/30 08:16:40;;;;;;;2.67;2.20;;;;;;;15.73;23.91;100160.59;5038657;28;20073;-71
2022/04/30 08:19:05;;;;;;;2.80;1.92;;;;;;;19.05;21.22;100150.63;5020428;28;20494;-72
2022/04/30 08:21:30;;;;;;;2.22;1.98;;;;;;;22.13;18.00;100151.50;5036963;28;20506;-71
2022/04/30 08:23:54;;;;;;;2.65;1.80;;;;;;;24.06;15.91;100148.03;5039688;28;20067;-69
2022/04/30 08:26:19;;;;;;;1.50;1.40;;;;;;;23.57;15.71;100152.19;5005942;28;20055;-72
2022/04/30 08:28:44;;;;;;;1.65;1.45;;;;;;;21.98;16.27;100154.09;5039867;28;20056;-69
2022/04/30 08:31:09;;;;;;;5.10;1.70;;;;;;;19.91;17.86;100153.69;5021093;28;20055;-69
2022/04/30 08:33:34;;;;;;;2.47;2.15;;;;;;;17.58;20.04;100159.38;5035622;28;20049;-69
2022/04/30 08:35:58;;;;;;;2.92;2.20;;;;;;;16.31;21.70;100169.91;5041067;28;20041;-70
2022/04/30 08:38:23;;;;;;;2.67;1.88;;;;;;;15.28;23.15;100171.47;5019803;28;20503;-70
2022/04/30 08:40:48;;;;;;;2.38;1.60;;;;;;;14.45;23.75;100165.72;5038021;28;20044;-70
2022/04/30 08:43:14;;;;;;;4.85;2.15;;;;;;;14.03;23.76;100169.91;5039308;28;20415;-70
2022/04/30 08:45:41;;;;;;;3.38;2.13;;;;;;;13.73;24.76;100173.13;5038190;28;20070;-70
2022/04/30 08:48:11;;;;;;;3.15;1.60;;;;;;;13.56;25.63;100163.66;5037340;28;20438;-70
2022/04/30 08:50:38;;;;;;;4.35;2.35;;;;;;;13.75;25.68;100173.88;5019061;28;20065;-70
2022/04/30 08:53:03;;;;;;;2.63;1.98;;;;;;;14.86;24.78;100157.06;5037036;28;20529;-68
2022/04/30 08:55:27;;;;;;;2.72;2.10;;;;;;;17.41;21.74;100158.22;5036797;28;20066;-69
2022/04/30 08:57:52;;;;;;;3.63;1.67;;;;;;;20.65;19.33;100139.66;5018708;28;20036;-68
2022/04/30 09:00:18;;;;;;;2.20;2.00;;;;;;;23.77;16.54;100145.22;5036846;28;20524;-70
2022/04/30 09:02:54;;;;;;;4.75;2.33;;;;;;;26.25;14.79;100160.69;5019030;28;20055;-68
2022/04/30 09:05:19;;;;;;;3.67;2.13;;;;;;;26.08;14.76;100149.19;5036862;28;20060;-69
2022/04/30 09:07:55;;;;;;;2.67;1.70;;;;;;;24.80;16.23;100143.53;5036746;28;20051;-68
2022/04/30 09:10:30;;;;;;;3.35;2.20;;;;;;;22.60;17.18;100145.28;5036436;28;20032;-68
2022/04/30 09:13:13;;;;;;;2.70;2.50;;;;;;;21.41;18.38;100142.31;5018548;28;20048;-69
2022/04/30 09:15:40;;;;;;;5.65;2.78;;;;;;;21.79;16.76;100143.50;5018622;28;20508;-69
2022/04/30 09:18:06;;;;;;;4.07;2.28;;;;;;;22.26;16.85;100138.25;5018534;28;20040;-68
2022/04/30 09:20:40;;;;;;;3.00;1.75;;;;;;;21.87;16.65;100138.09;5018149;28;20044;-69
2022/04/30 09:23:05;;;;;;;2.20;2.00;;;;;;;20.73;16.89;100138.84;5018448;28;20072;-68
2022/04/30 09:25:29;;;;;;;6.25;2.97;;;;;;;19.04;17.77;100138.13;4985186;28;20071;-67
2022/04/30 09:27:55;;;;;;;5.53;1.92;;;;;;;18.16;19.01;100127.84;5036489;28;20702;-70
2022/04/30 09:30:24;;;;;;;2.92;2.13;;;;;;;17.04;19.78;100134.63;5035205;28;20090;-70
2022/04/30 09:33:04;;;;;;;2.83;1.90;;;;;;;16.10;21.05;100129.56;5036371;28;20072;-70
2022/04/30 09:38:13;;;;;;;3.63;2.13;;;;;;;14.70;22.32;100143.16;4995060;28;20086;-71
2022/04/30 09:40:38;;;;;;;6.53;2.63;;;;;;;14.73;22.91;100135.72;5014458;28;20127;-70
2022/04/30 09:43:05;;;;;;;5.30;2.38;;;;;;;16.04;22.06;100131.91;5016315;28;20524;-70
2022/04/30 09:45:35;;;;;;;5.53;2.40;;;;;;;17.77;20.55;100135.13;5015368;28;20040;-71
2022/04/30 09:53:56;;;;;;;3.20;2.47;;;;;;;18.23;19.78;100131.63;5000178;28;20415;-70
2022/04/30 09:56:25;;;;;;;4.82;2.65;;;;;;;14.98;21.65;100131.03;5015677;28;20045;-71
2022/04/30 09:58:49;;;;;;;3.83;2.30;;;;;;;14.84;22.09;100130.34;5015836;28;20403;-69
2022/04/30 10:01:14;;;;;;;3.25;2.33;;;;;;;15.01;21.41;100130.81;5014634;28;20453;-70
2022/04/30 10:03:41;;;;;;;5.45;2.55;;;;;;;14.93;21.26;100127.88;5015685;28;20045;-69
2022/04/30 10:06:06;;;;;;;5.45;2.10;;;;;;;14.72;21.82;100122.41;5014786;28;20041;-72
2022/04/30 10:08:39;;;;;;;2.95;2.28;;;;;;;14.41;22.06;100126.72;5016387;28;20720;-71
2022/04/30 10:11:41;;;;;;;4.43;2.22;;;;;;;14.08;22.50;100133.75;4997623;28;20074;-70
2022/04/30 10:14:22;;;;;;;3.25;2.42;;;;;;;13.69;23.24;100139.47;4948531;28;20093;-70
2022/04/30 10:17:10;;;;;;;4.85;2.20;;;;;;;13.10;23.67;100131.41;4954307;28;20129;-70
2022/04/30 10:19:31;;;;;;;4.13;2.28;;;;;;;12.61;24.21;100129.66;4954300;28;20078;-69
2022/04/30 10:22:17;;;;;;;2.30;1.75;;;;;;;12.77;24.42;100126.72;4954457;28;20081;-69
2022/04/30 10:24:47;;;;;;;6.47;2.28;;;;;;;12.88;24.44;100124.09;4954232;28;20528;-69
2022/04/30 10:27:12;;;;;;;6.60;3.13;;;;;;;12.98;24.65;100127.00;4938138;28;20505;-69
2022/04/30 10:29:37;;;;;;;3.38;2.53;;;;;;;13.23;23.99;100126.88;4937848;28;20396;-69
2022/04/30 10:32:02;;;;;;;5.00;2.22;;;;;;;13.35;24.60;100122.44;4937909;28;20481;-68
2022/04/30 10:34:31;;;;;;;3.25;2.72;;;;;;;13.62;24.41;100127.53;4954776;28;20509;-70
2022/04/30 10:37:00;;;;;;;2.13;1.92;;;;;;;13.82;23.86;100110.78;4938467;28;20042;-69
2022/04/30 10:39:25;;;;;;;2.28;2.08;;;;;;;14.03;24.35;100118.97;4954222;28;20046;-69
2022/04/30 10:41:53;;;;;;;2.78;2.00;;;;;;;14.18;23.77;100126.69;4954180;28;20057;-69
2022/04/30 10:44:28;;;;;;;4.75;2.90;;;;;;;14.12;22.67;100116.41;4938147;28;20062;-71
2022/04/30 10:46:53;;;;;;;2.33;1.77;;;;;;;13.42;23.20;100126.38;4941880;28;20040;-70
2022/04/30 10:49:18;;;;;;;3.30;2.58;;;;;;;13.51;23.99;100114.09;4942368;28;20137;-70
2022/04/30 10:51:44;;;;;;;3.05;2.25;;;;;;;13.49;23.59;100124.06;5001795;28;20041;-68
2022/04/30 10:54:16;;;;;;;5.47;2.65;;;;;;;13.03;23.84;100122.13;4997267;28;20048;-70
2022/04/30 10:56:41;;;;;;;3.88;2.60;;;;;;;12.60;24.48;100122.59;5015394;28;20064;-71
2022/04/30 10:59:07;;;;;;;1.92;1.80;;;;;;;12.46;24.94;100114.72;4984690;28;20053;-71
2022/04/30 11:01:32;;;;;;;2.25;2.00;;;;;;;12.53;25.14;100115.97;5019059;28;20051;-70
2022/04/30 11:03:57;;;;;;;3.53;2.15;;;;;;;12.30;25.60;100117.59;5018888;28;20423;-70
2022/04/30 11:06:28;;;;;;;2.47;1.80;;;;;;;12.45;25.41;100109.47;5019225;28;20377;-71
2022/04/30 11:09:11;;;;;;;4.13;2.50;;;;;;;12.43;25.80;100122.94;5001373;28;20067;-69
2022/04/30 11:11:37;;;;;;;4.13;2.72;;;;;;;11.97;26.04;100106.63;5019160;28;20404;-70
2022/04/30 11:14:07;;;;;;;2.05;1.85;;;;;;;11.65;25.70;100114.16;5000875;28;20496;-68
2022/04/30 11:16:33;;;;;;;3.67;2.50;;;;;;;11.14;26.16;100116.72;5001195;28;20044;-68
2022/04/30 11:19:08;;;;;;;3.97;2.47;;;;;;;10.78;26.76;100112.00;5018748;28;20053;-67
2022/04/30 11:21:34;;;;;;;4.35;2.65;;;;;;;10.55;27.13;100115.28;5000477;28;20186;-70
2022/04/30 11:23:58;;;;;;;4.20;2.72;;;;;;;10.40;27.65;100106.44;5018648;28;20124;-68
2022/04/30 11:26:23;;;;;;;3.72;2.05;;;;;;;10.38;28.12;100104.84;5000686;28;20125;-68
2022/04/30 11:28:48;;;;;;;3.72;2.55;;;;;;;10.45;28.26;100116.81;5018929;28;20183;-69
2022/04/30 11:31:19;;;;;;;11.48;2.30;;;;;;;10.60;28.12;100104.31;5022189;28;20044;-69
2022/04/30 11:33:44;;;;;;;8.60;2.35;;;;;;;10.62;27.62;100111.25;5007286;28;20056;-68
2022/04/30 11:36:09;;;;;;;3.92;1.80;;;;;;;10.67;27.49;100116.31;5006775;28;20052;-68
2022/04/30 11:38:33;;;;;;;2.83;1.73;;;;;;;10.58;27.43;100116.91;5022529;28;20056;-66
2022/04/30 11:41:03;;;;;;;3.53;1.98;;;;;;;10.62;27.72;100115.72;5022576;28;20044;-66
2022/04/30 11:43:28;;;;;;;3.78;1.70;;;;;;;10.59;27.82;100107.94;5020137;28;20084;-66
2022/04/30 11:45:59;;;;;;;3.65;2.47;;;;;;;10.45;28.03;100114.16;5019832;28;20122;-67
2022/04/30 11:48:25;;;;;;;6.97;2.90;;;;;;;10.12;28.26;100109.09;5018247;28;20045;-68
2022/04/30 11:50:50;;;;;;;5.75;3.75;;;;;;;10.14;27.96;100110.72;5000341;28;20036;-67
2022/04/30 11:53:15;;;;;;;10.55;3.30;;;;;;;10.08;27.74;100110.22;5000512;28;20389;-74
2022/04/30 11:55:40;;;;;;;7.22;4.40;;;;;;;10.16;27.66;100110.59;5017900;28;20411;-72
2022/04/30 11:58:05;;;;;;;4.82;2.60;;;;;;;10.35;28.49;100110.34;5000396;28;20083;-71
2022/04/30 12:00:34;;;;;;;6.95;2.53;;;;;;;10.63;27.58;100109.44;5018570;28;20053;-72